Time;durP1;ratioP1;P1;durP2;ratioP2;P2;SDS_P1;SDS_P2;PMS_P1;PMS_P2;Temp;Humidity;BMP_temperature;BMP_pressure;BME280_temperature;BME280_humidity;BME280_pressure;Samples;Min_cycle;Max_cycle;Signal;HPM_P1;HPM_P2
2022/09/23 00:01:09;;;;;;;12.85;10.13;;;15.10;99.40;;;;;;5055127;28;20223;-47
2022/09/23 00:03:38;;;;;;;12.57;10.30;;;15.10;99.40;;;;;;5054395;28;20215;-44
2022/09/23 00:06:07;;;;;;;16.35;9.85;;;15.00;99.40;;;;;;5054718;28;20678;-47
2022/09/23 00:08:33;;;;;;;14.82;10.30;;;15.00;99.50;;;;;;5054919;28;20164;-44
2022/09/23 00:11:26;;;;;;;13.30;10.15;;;15.00;99.50;;;;;;5043104;28;20289;-43
2022/09/23 00:13:55;;;;;;;14.90;9.93;;;15.00;99.40;;;;;;5067028;28;20647;-51
2022/09/23 00:16:25;;;;;;;14.27;10.43;;;15.00;99.40;;;;;;5050358;28;20183;-44
2022/09/23 00:18:51;;;;;;;16.23;10.50;;;15.00;99.40;;;;;;5055366;28;20175;-48
2022/09/23 00:21:18;;;;;;;16.48;10.90;;;14.90;99.30;;;;;;5055132;28;20316;-44
2022/09/23 00:23:44;;;;;;;15.68;10.52;;;14.90;99.50;;;;;;5051538;28;20198;-48
2022/09/23 00:26:14;;;;;;;15.48;11.27;;;14.80;99.50;;;;;;5047485;28;20667;-47
2022/09/23 00:28:41;;;;;;;17.70;10.90;;;14.80;99.60;;;;;;5020732;28;20560;-46
2022/09/23 00:31:15;;;;;;;14.35;10.55;;;14.70;99.70;;;;;;5054947;28;20658;-44
2022/09/23 00:33:41;;;;;;;15.90;11.00;;;14.70;99.80;;;;;;5053122;28;20174;-50
2022/09/23 00:36:10;;;;;;;15.20;11.18;;;14.60;99.90;;;;;;5015454;28;20199;-44
2022/09/23 00:38:36;;;;;;;14.63;10.98;;;14.60;99.90;;;;;;5035164;28;20172;-44
2022/09/23 00:41:02;;;;;;;16.23;11.27;;;14.60;99.90;;;;;;5034427;28;20647;-50
2022/09/23 00:43:47;;;;;;;19.23;11.48;;;14.60;99.90;;;;;;5042055;28;20179;-47
2022/09/23 00:46:40;;;;;;;16.88;11.32;;;14.60;99.90;;;;;;5021031;28;20522;-44
2022/09/23 00:49:29;;;;;;;17.27;11.40;;;14.50;99.90;;;;;;5010839;28;20348;-43
2022/09/23 00:52:04;;;;;;;13.52;11.27;;;14.50;99.90;;;;;;5034632;28;20203;-44
2022/09/23 00:54:30;;;;;;;20.30;10.80;;;14.50;99.90;;;;;;5035172;28;20168;-48
2022/09/23 00:56:58;;;;;;;17.05;10.73;;;14.50;99.90;;;;;;5054591;28;20191;-49
2022/09/23 00:59:25;;;;;;;14.15;10.93;;;14.50;99.90;;;;;;5036385;28;20179;-49
2022/09/23 01:01:53;;;;;;;19.50;12.02;;;14.50;99.90;;;;;;5054686;28;20227;-46
2022/09/23 01:04:22;;;;;;;14.90;11.05;;;14.50;99.90;;;;;;5053931;28;20254;-46
2022/09/23 01:06:48;;;;;;;15.07;10.77;;;14.40;99.90;;;;;;5047945;28;20580;-44
2022/09/23 01:09:14;;;;;;;15.98;11.70;;;14.40;99.90;;;;;;5053132;28;20687;-48
2022/09/23 01:12:21;;;;;;;14.30;11.95;;;14.30;99.90;;;;;;5048372;28;20166;-44
2022/09/23 01:14:55;;;;;;;17.45;12.40;;;14.30;99.90;;;;;;5026482;28;20190;-44
2022/09/23 01:17:50;;;;;;;16.17;11.43;;;14.30;99.90;;;;;;5023529;28;20703;-44
2022/09/23 01:20:37;;;;;;;16.45;12.32;;;14.30;99.90;;;;;;5053846;28;20162;-43
2022/09/23 01:23:20;;;;;;;19.48;11.40;;;14.20;99.90;;;;;;5053682;28;20213;-43
2022/09/23 01:26:12;;;;;;;16.80;10.82;;;14.20;99.90;;;;;;5053689;28;20230;-44
2022/09/23 01:29:14;;;;;;;16.15;12.13;;;14.10;99.90;;;;;;5044430;28;20180;-54
2022/09/23 01:31:52;;;;;;;17.38;11.88;;;14.10;99.90;;;;;;5017229;28;20222;-43
2022/09/23 01:34:49;;;;;;;17.95;12.35;;;14.10;99.90;;;;;;5033735;28;20176;-48
2022/09/23 01:37:24;;;;;;;17.20;11.60;;;14.10;99.90;;;;;;5018187;28;20725;-48
2022/09/23 01:40:17;;;;;;;17.92;12.75;;;14.10;99.90;;;;;;5020912;28;20643;-49
2022/09/23 01:43:06;;;;;;;17.58;12.63;;;14.00;99.90;;;;;;5026330;28;20183;-43
2022/09/23 01:45:44;;;;;;;15.75;11.65;;;14.00;99.90;;;;;;5032718;28;20191;-48
2022/09/23 01:48:17;;;;;;;15.63;11.95;;;14.00;99.90;;;;;;5026430;28;20199;-46
2022/09/23 01:50:59;;;;;;;20.58;13.45;;;14.00;99.90;;;;;;5053249;28;20171;-43
2022/09/23 01:53:35;;;;;;;23.92;12.20;;;14.00;99.90;;;;;;5035674;28;20194;-44
2022/09/23 01:56:17;;;;;;;16.70;12.15;;;13.90;99.90;;;;;;5035239;28;20297;-43
2022/09/23 01:59:08;;;;;;;17.25;12.95;;;13.90;99.90;;;;;;5047523;28;20186;-48
2022/09/23 02:01:44;;;;;;;18.17;12.75;;;13.90;99.90;;;;;;5053739;28;20250;-42
2022/09/23 02:04:18;;;;;;;20.40;12.80;;;13.80;99.90;;;;;;5053051;28;20250;-44
2022/09/23 02:07:05;;;;;;;16.35;12.82;;;13.80;99.90;;;;;;5053416;28;20168;-42
2022/09/23 02:09:45;;;;;;;16.27;12.75;;;13.80;99.90;;;;;;5030517;28;20179;-45
2022/09/23 02:12:19;;;;;;;18.42;12.85;;;13.70;99.90;;;;;;5051803;28;20175;-46
2022/09/23 02:14:52;;;;;;;20.77;12.20;;;13.70;99.90;;;;;;5035811;28;20270;-43
2022/09/23 02:17:27;;;;;;;16.45;12.32;;;13.70;99.90;;;;;;5052352;28;20198;-45
2022/09/23 02:20:00;;;;;;;18.70;12.50;;;13.70;99.90;;;;;;5047406;28;20639;-42
2022/09/23 02:22:34;;;;;;;16.08;12.65;;;13.70;99.90;;;;;;5050525;28;20285;-41
2022/09/23 02:25:00;;;;;;;16.17;12.65;;;13.70;99.90;;;;;;5034976;28;20206;-45
2022/09/23 02:27:36;;;;;;;21.35;13.25;;;13.70;99.90;;;;;;5052619;28;20655;-43
2022/09/23 02:30:14;;;;;;;17.25;13.02;;;13.60;99.90;;;;;;5018161;28;20178;-48
2022/09/23 02:32:51;;;;;;;19.85;12.88;;;13.70;99.90;;;;;;5053408;28;20257;-46
2022/09/23 02:35:55;;;;;;;16.02;12.88;;;13.70;99.90;;;;;;5052492;28;20181;-43
2022/09/23 02:38:43;;;;;;;20.08;13.57;;;13.70;99.90;;;;;;5035252;28;20274;-46
2022/09/23 02:41:36;;;;;;;22.77;13.18;;;13.60;99.90;;;;;;5049588;28;20180;-45
2022/09/23 02:44:15;;;;;;;19.17;12.80;;;13.60;99.90;;;;;;5051115;28;20224;-48
2022/09/23 02:46:42;;;;;;;18.95;13.40;;;13.60;99.90;;;;;;5052037;28;20229;-53
2022/09/23 02:49:12;;;;;;;17.35;13.00;;;13.60;99.90;;;;;;5035763;28;20610;-47
2022/09/23 02:51:39;;;;;;;16.60;13.00;;;13.60;99.90;;;;;;5033035;28;20682;-45
2022/09/23 02:54:13;;;;;;;16.98;13.10;;;13.60;99.90;;;;;;5049314;28;20187;-42
2022/09/23 02:56:40;;;;;;;18.17;12.57;;;13.60;99.90;;;;;;5038928;28;20179;-43
2022/09/23 02:59:08;;;;;;;20.85;13.27;;;13.60;99.90;;;;;;5038837;28;20195;-42
2022/09/23 03:01:53;;;;;;;17.73;12.77;;;13.60;99.90;;;;;;5028346;28;20242;-42
2022/09/23 03:04:37;;;;;;;20.65;12.23;;;13.60;99.90;;;;;;5054543;28;20187;-42
2022/09/23 03:07:09;;;;;;;18.83;12.63;;;13.60;99.90;;;;;;5056386;28;20635;-44
2022/09/23 03:09:47;;;;;;;16.50;12.48;;;13.60;99.90;;;;;;5038428;28;20178;-43
2022/09/23 03:12:21;;;;;;;17.38;11.82;;;13.60;99.90;;;;;;5049837;28;20183;-52
2022/09/23 03:14:53;;;;;;;20.30;12.70;;;13.60;99.90;;;;;;5051804;28;20650;-40
2022/09/23 03:17:32;;;;;;;16.17;12.00;;;13.60;99.90;;;;;;5055428;28;20168;-45
2022/09/23 03:20:04;;;;;;;16.52;11.63;;;13.70;99.90;;;;;;5056784;28;20608;-41
2022/09/23 03:22:59;;;;;;;15.73;11.93;;;13.70;99.90;;;;;;5053567;28;20191;-47
2022/09/23 03:25:30;;;;;;;16.55;11.73;;;13.70;99.90;;;;;;5037771;28;20191;-47
2022/09/23 03:27:59;;;;;;;21.80;12.55;;;13.70;99.90;;;;;;5038216;28;20206;-45
2022/09/23 03:30:25;;;;;;;16.58;12.30;;;13.70;99.90;;;;;;5038120;28;20206;-53
2022/09/23 03:32:51;;;;;;;15.95;12.38;;;13.70;99.90;;;;;;5051784;28;20187;-45
2022/09/23 03:35:18;;;;;;;14.82;12.07;;;13.70;99.90;;;;;;5020204;28;20195;-45
2022/09/23 03:37:54;;;;;;;19.50;12.82;;;13.70;99.90;;;;;;5037892;28;20180;-43
2022/09/23 03:40:40;;;;;;;18.80;12.73;;;13.70;99.90;;;;;;5055554;28;20175;-43
2022/09/23 03:43:06;;;;;;;16.80;12.48;;;13.70;99.90;;;;;;5054638;28;20313;-42
2022/09/23 03:45:33;;;;;;;15.95;12.25;;;13.70;99.90;;;;;;5054745;28;20298;-49
2022/09/23 03:47:59;;;;;;;15.57;11.85;;;13.70;99.90;;;;;;5037162;28;20316;-43
2022/09/23 03:50:25;;;;;;;17.35;12.23;;;13.70;99.90;;;;;;5055095;28;20174;-43
2022/09/23 03:52:52;;;;;;;15.40;11.80;;;13.70;99.90;;;;;;5054191;28;20250;-44
2022/09/23 03:55:19;;;;;;;18.90;12.15;;;13.70;99.90;;;;;;5055299;28;20179;-43
2022/09/23 03:57:45;;;;;;;17.13;12.60;;;13.70;99.90;;;;;;5055220;28;20176;-44
2022/09/23 04:00:13;;;;;;;16.85;13.10;;;13.80;99.90;;;;;;5020261;28;20227;-47
2022/09/23 04:02:39;;;;;;;15.02;11.50;;;13.80;99.90;;;;;;5052007;28;20224;-41
2022/09/23 04:05:06;;;;;;;17.27;12.63;;;13.70;99.90;;;;;;5052290;28;20671;-42
2022/09/23 04:07:31;;;;;;;13.95;11.57;;;13.70;99.90;;;;;;5037470;28;20175;-48
2022/09/23 04:09:57;;;;;;;18.55;12.15;;;13.70;99.90;;;;;;5055002;28;20179;-44
2022/09/23 04:12:23;;;;;;;15.52;11.70;;;13.80;99.90;;;;;;5056566;28;20193;-45
2022/09/23 04:14:49;;;;;;;20.70;12.15;;;13.80;99.90;;;;;;5048742;28;20183;-45
2022/09/23 04:17:15;;;;;;;18.10;12.23;;;13.80;99.90;;;;;;5053952;28;20552;-45
2022/09/23 04:19:41;;;;;;;17.48;11.82;;;13.70;99.90;;;;;;5054672;28;20179;-44
2022/09/23 04:22:08;;;;;;;19.73;12.15;;;13.80;99.90;;;;;;5051166;28;20186;-44
2022/09/23 04:24:33;;;;;;;15.27;11.90;;;13.70;99.90;;;;;;5054661;28;20175;-48
2022/09/23 04:26:59;;;;;;;14.95;11.30;;;13.80;99.90;;;;;;5054966;28;20245;-43
2022/09/23 04:29:25;;;;;;;18.88;12.38;;;13.80;99.90;;;;;;5054615;28;20262;-43
2022/09/23 04:31:52;;;;;;;16.27;11.65;;;13.80;99.90;;;;;;5054767;28;20579;-46
2022/09/23 04:34:18;;;;;;;15.18;11.68;;;13.80;99.90;;;;;;5023382;28;20618;-44
2022/09/23 04:36:46;;;;;;;15.55;11.70;;;13.80;99.90;;;;;;5054709;28;20258;-45
2022/09/23 04:39:13;;;;;;;14.77;11.80;;;13.80;99.90;;;;;;5036640;28;20179;-43
2022/09/23 04:41:40;;;;;;;19.55;11.63;;;13.80;99.90;;;;;;5034364;28;20639;-47
2022/09/23 04:44:06;;;;;;;18.23;11.85;;;13.70;99.90;;;;;;5043026;28;20183;-46
2022/09/23 04:46:31;;;;;;;16.02;11.93;;;13.70;99.90;;;;;;5017766;28;20336;-43
2022/09/23 04:48:57;;;;;;;15.70;11.45;;;13.70;99.90;;;;;;5043510;28;20179;-44
2022/09/23 04:51:25;;;;;;;20.83;11.93;;;13.70;99.90;;;;;;5051735;28;20209;-42
2022/09/23 04:53:53;;;;;;;20.10;11.38;;;13.70;99.90;;;;;;5051620;28;20189;-48
2022/09/23 04:56:22;;;;;;;15.93;11.07;;;13.70;99.90;;;;;;5047560;28;20674;-49
2022/09/23 04:58:49;;;;;;;15.55;11.35;;;13.70;99.90;;;;;;5049948;28;20635;-49
2022/09/23 05:01:24;;;;;;;17.00;11.85;;;13.70;99.90;;;;;;5024052;28;20226;-49
2022/09/23 05:03:52;;;;;;;19.90;10.90;;;13.70;99.90;;;;;;5052841;28;20171;-44
2022/09/23 05:06:20;;;;;;;17.23;11.82;;;13.80;99.90;;;;;;5054081;28;20215;-45
2022/09/23 05:08:53;;;;;;;17.83;11.93;;;13.80;99.90;;;;;;5049135;28;20215;-45
2022/09/23 05:11:20;;;;;;;18.40;11.40;;;13.80;99.90;;;;;;5060428;28;20175;-45
2022/09/23 05:13:47;;;;;;;17.63;11.00;;;13.70;99.90;;;;;;5041995;28;20197;-45
2022/09/23 05:16:15;;;;;;;16.00;11.27;;;13.80;99.90;;;;;;5051744;28;20271;-53
2022/09/23 05:18:42;;;;;;;19.50;11.90;;;13.80;99.90;;;;;;5030520;28;20179;-53
2022/09/23 05:21:09;;;;;;;15.38;11.32;;;13.80;99.90;;;;;;5047280;28;20196;-47
2022/09/23 05:23:35;;;;;;;15.20;11.98;;;13.80;99.90;;;;;;5053791;28;20175;-47
2022/09/23 05:26:09;;;;;;;17.42;12.15;;;13.80;99.90;;;;;;5050875;28;20299;-47
2022/09/23 05:28:38;;;;;;;15.30;11.52;;;13.70;99.90;;;;;;5051674;28;20289;-47
2022/09/23 05:31:04;;;;;;;15.95;11.55;;;13.80;99.90;;;;;;5046434;28;20623;-50
2022/09/23 05:33:31;;;;;;;16.20;11.30;;;13.80;99.90;;;;;;5035018;28;20270;-47
2022/09/23 05:35:56;;;;;;;19.13;11.25;;;13.80;99.90;;;;;;5053617;28;20272;-50
2022/09/23 05:38:22;;;;;;;15.00;11.57;;;13.80;99.90;;;;;;5053456;28;20622;-48
2022/09/23 05:40:58;;;;;;;20.30;11.32;;;13.80;99.90;;;;;;5028002;28;20193;-46
2022/09/23 05:43:25;;;;;;;17.85;11.60;;;13.70;99.90;;;;;;5035827;28;20197;-43
2022/09/23 05:45:59;;;;;;;22.85;11.32;;;13.80;99.90;;;;;;5050448;28;20217;-43
2022/09/23 05:48:25;;;;;;;21.30;12.15;;;13.80;99.90;;;;;;5035345;28;20228;-44
2022/09/23 05:50:52;;;;;;;16.90;11.07;;;13.80;99.90;;;;;;5026167;28;20589;-42
2022/09/23 05:53:18;;;;;;;19.60;12.23;;;13.80;99.90;;;;;;5020761;28;20237;-45
2022/09/23 05:55:44;;;;;;;23.80;12.68;;;13.80;99.90;;;;;;5053137;28;20175;-49
2022/09/23 05:58:14;;;;;;;17.10;12.52;;;13.80;99.90;;;;;;5053152;28;20183;-48
2022/09/23 06:00:41;;;;;;;17.77;12.10;;;13.80;99.90;;;;;;5049203;28;20286;-57
2022/09/23 06:03:12;;;;;;;24.00;12.25;;;13.80;99.90;;;;;;5043874;28;20196;-47
2022/09/23 06:05:38;;;;;;;23.40;13.02;;;13.90;99.90;;;;;;5034033;28;20206;-44
2022/09/23 06:08:05;;;;;;;23.20;12.23;;;13.90;99.90;;;;;;5033870;28;20187;-45
2022/09/23 06:10:38;;;;;;;20.23;12.15;;;13.90;99.90;;;;;;5052528;28;20249;-44
2022/09/23 06:13:04;;;;;;;22.52;12.13;;;13.90;99.90;;;;;;5039265;28;20175;-42
2022/09/23 06:15:30;;;;;;;18.98;12.77;;;13.90;99.90;;;;;;5043750;28;20266;-44
2022/09/23 06:17:56;;;;;;;23.23;13.02;;;13.90;99.90;;;;;;5032231;28;20179;-46
2022/09/23 06:20:21;;;;;;;18.48;12.35;;;13.90;99.90;;;;;;5040577;28;20185;-50
2022/09/23 06:22:47;;;;;;;21.10;12.88;;;13.90;99.90;;;;;;5040029;28;20199;-45
2022/09/23 06:25:13;;;;;;;19.92;12.30;;;13.90;99.90;;;;;;5053155;28;20211;-45
2022/09/23 06:27:38;;;;;;;20.73;12.05;;;13.80;99.90;;;;;;5038216;28;20277;-46
2022/09/23 06:30:05;;;;;;;22.25;12.35;;;13.80;99.90;;;;;;5055645;28;20584;-44
2022/09/23 06:32:32;;;;;;;20.08;13.52;;;13.80;99.90;;;;;;5053137;28;20191;-45
2022/09/23 06:34:57;;;;;;;21.35;14.30;;;13.80;99.90;;;;;;5041902;28;20175;-44
2022/09/23 06:37:23;;;;;;;16.88;13.18;;;13.80;99.90;;;;;;5037694;28;20205;-43
2022/09/23 06:39:49;;;;;;;22.52;13.40;;;13.80;99.90;;;;;;5037219;28;20536;-46
2022/09/23 06:42:16;;;;;;;19.30;13.00;;;13.90;99.90;;;;;;5056406;28;20171;-44
2022/09/23 06:44:42;;;;;;;19.85;13.02;;;13.90;99.90;;;;;;5042766;28;20569;-55
2022/09/23 06:47:08;;;;;;;23.30;13.43;;;13.80;99.90;;;;;;5033299;28;20578;-43
2022/09/23 06:49:34;;;;;;;19.63;13.55;;;13.90;99.90;;;;;;5037464;28;20225;-45
2022/09/23 06:52:00;;;;;;;18.20;13.63;;;13.90;99.90;;;;;;5056218;28;20347;-43
2022/09/23 06:54:29;;;;;;;24.42;14.18;;;13.90;99.90;;;;;;5054521;28;20167;-57
2022/09/23 06:56:55;;;;;;;23.23;13.05;;;13.90;99.90;;;;;;5043535;28;20236;-46
2022/09/23 06:59:20;;;;;;;23.15;14.13;;;13.90;99.90;;;;;;5038380;28;20183;-46
2022/09/23 07:01:47;;;;;;;18.00;13.35;;;14.00;99.90;;;;;;5054207;28;20237;-45
2022/09/23 07:04:13;;;;;;;16.83;13.00;;;14.00;99.90;;;;;;5054828;28;20199;-44
2022/09/23 07:06:39;;;;;;;22.70;13.05;;;14.00;99.90;;;;;;5010577;28;20218;-48
2022/09/23 07:09:07;;;;;;;18.27;12.95;;;14.00;99.90;;;;;;5049831;28;20176;-46
2022/09/23 07:11:32;;;;;;;19.42;12.85;;;14.10;99.90;;;;;;5048087;28;20261;-46
2022/09/23 07:13:58;;;;;;;18.05;13.15;;;14.10;99.90;;;;;;5067559;28;20275;-44
2022/09/23 07:16:24;;;;;;;18.63;12.77;;;14.10;99.90;;;;;;5043896;28;20307;-45
2022/09/23 07:18:51;;;;;;;21.60;13.65;;;14.10;99.90;;;;;;5039653;28;20888;-49
2022/09/23 07:21:18;;;;;;;17.27;12.45;;;14.10;99.90;;;;;;5048234;28;20191;-46
2022/09/23 07:23:48;;;;;;;18.88;12.82;;;14.20;99.90;;;;;;5055113;28;20540;-45
2022/09/23 07:26:16;;;;;;;24.00;13.35;;;14.20;99.90;;;;;;5050813;28;20794;-43
2022/09/23 07:28:42;;;;;;;23.42;14.13;;;14.20;99.90;;;;;;5043159;28;20175;-46
2022/09/23 07:31:11;;;;;;;21.10;13.50;;;14.30;99.90;;;;;;5043349;28;20190;-42
2022/09/23 07:33:38;;;;;;;24.08;13.30;;;14.30;99.90;;;;;;5053921;28;20167;-44
2022/09/23 07:36:13;;;;;;;26.10;13.32;;;14.30;99.90;;;;;;5052853;28;20712;-47
2022/09/23 07:38:39;;;;;;;27.20;13.80;;;14.30;99.90;;;;;;5042257;28;20217;-48
2022/09/23 07:41:10;;;;;;;19.67;13.38;;;14.40;99.90;;;;;;5054525;28;20183;-44
2022/09/23 07:43:36;;;;;;;20.15;13.93;;;14.40;99.90;;;;;;5055205;28;20204;-43
2022/09/23 07:46:13;;;;;;;17.55;13.10;;;14.50;99.90;;;;;;5052703;28;20318;-49
2022/09/23 07:48:39;;;;;;;19.95;13.05;;;14.50;99.90;;;;;;5043788;28;20186;-51
2022/09/23 07:51:19;;;;;;;21.83;13.13;;;14.50;99.90;;;;;;5047855;28;20184;-44
2022/09/23 07:53:50;;;;;;;22.20;13.82;;;14.60;99.90;;;;;;5055013;28;20167;-46
2022/09/23 07:56:18;;;;;;;23.17;14.50;;;14.60;99.90;;;;;;5054269;28;20186;-47
2022/09/23 07:58:45;;;;;;;22.77;14.25;;;14.70;99.90;;;;;;5023904;28;20190;-50
2022/09/23 08:01:12;;;;;;;21.85;14.25;;;14.70;99.90;;;;;;5050361;28;20253;-46
2022/09/23 08:03:38;;;;;;;20.65;13.02;;;14.80;99.90;;;;;;5054782;28;20178;-43
2022/09/23 08:06:08;;;;;;;30.48;13.93;;;14.80;99.90;;;;;;5053570;28;20211;-51
2022/09/23 08:08:38;;;;;;;20.40;13.93;;;14.80;99.90;;;;;;5050395;28;20183;-46
2022/09/23 08:11:06;;;;;;;20.08;13.35;;;15.00;99.90;;;;;;5044252;28;20187;-43
2022/09/23 08:13:32;;;;;;;24.48;14.13;;;15.00;99.90;;;;;;5053867;28;20190;-49
2022/09/23 08:15:58;;;;;;;29.80;14.45;;;15.10;99.90;;;;;;5052442;28;20597;-45
2022/09/23 08:18:24;;;;;;;26.27;14.93;;;15.10;99.90;;;;;;5053359;28;20175;-43
2022/09/23 08:20:51;;;;;;;28.17;15.23;;;15.20;99.90;;;;;;5042071;28;20183;-43
2022/09/23 08:23:18;;;;;;;23.42;13.90;;;15.20;99.90;;;;;;5054555;28;20187;-42
2022/09/23 08:25:46;;;;;;;25.63;14.00;;;15.30;99.90;;;;;;5050923;28;20215;-43
2022/09/23 08:28:17;;;;;;;23.77;14.30;;;15.30;99.90;;;;;;5053448;28;20179;-43
2022/09/23 08:30:48;;;;;;;20.90;13.70;;;15.40;99.90;;;;;;5032417;28;20211;-43
2022/09/23 08:33:14;;;;;;;31.75;14.88;;;15.40;99.90;;;;;;5053202;28;20695;-44
2022/09/23 08:35:40;;;;;;;27.13;15.20;;;15.40;99.90;;;;;;5039868;28;20674;-48
2022/09/23 08:38:06;;;;;;;34.28;16.13;;;15.50;99.90;;;;;;5048763;28;20262;-49
2022/09/23 08:40:36;;;;;;;22.60;15.20;;;15.60;99.90;;;;;;5045460;28;20233;-46
2022/09/23 08:43:06;;;;;;;23.15;14.55;;;15.50;99.90;;;;;;5040515;28;20171;-46
2022/09/23 08:45:33;;;;;;;26.60;15.48;;;15.60;99.90;;;;;;5053429;28;20203;-47
2022/09/23 08:48:07;;;;;;;30.08;15.75;;;15.60;99.90;;;;;;5051638;28;20271;-50
2022/09/23 08:50:41;;;;;;;28.10;15.88;;;15.60;99.90;;;;;;5049389;28;20243;-45
2022/09/23 08:53:26;;;;;;;32.13;16.30;;;15.70;99.90;;;;;;5040098;28;20529;-46
2022/09/23 08:55:56;;;;;;;28.17;15.68;;;15.70;99.90;;;;;;5053935;28;20519;-48
2022/09/23 08:58:58;;;;;;;28.48;15.20;;;15.70;99.90;;;;;;5052245;28;20175;-44
2022/09/23 09:01:44;;;;;;;28.38;15.90;;;15.70;99.90;;;;;;5014979;28;20309;-55
2022/09/23 09:04:37;;;;;;;31.55;15.98;;;15.70;99.90;;;;;;5047656;28;20205;-47
2022/09/23 09:07:13;;;;;;;23.13;16.08;;;15.70;99.90;;;;;;5041251;28;20245;-46
2022/09/23 09:09:56;;;;;;;23.30;16.35;;;15.70;99.90;;;;;;5053845;28;20175;-44
2022/09/23 09:12:37;;;;;;;26.98;15.88;;;15.70;99.90;;;;;;5045945;28;20717;-43
2022/09/23 09:15:25;;;;;;;28.77;16.33;;;15.70;99.90;;;;;;5045801;28;20265;-54
2022/09/23 09:18:18;;;;;;;25.60;15.70;;;15.70;99.90;;;;;;5036520;28;20550;-49
2022/09/23 09:21:09;;;;;;;25.98;16.73;;;15.70;99.90;;;;;;5048681;28;20294;-48
2022/09/23 09:23:53;;;;;;;26.58;16.98;;;15.60;99.90;;;;;;5051067;28;20299;-43
2022/09/23 09:26:27;;;;;;;29.88;16.80;;;15.60;99.90;;;;;;5053350;28;20203;-46
2022/09/23 09:29:12;;;;;;;25.70;16.40;;;15.60;99.90;;;;;;5049998;28;20180;-49
2022/09/23 09:31:46;;;;;;;24.48;16.50;;;15.60;99.90;;;;;;5037047;28;20179;-49
2022/09/23 09:34:36;;;;;;;35.30;16.98;;;15.70;99.90;;;;;;5047032;28;20245;-47
2022/09/23 09:37:36;;;;;;;28.30;16.92;;;15.60;99.90;;;;;;5051067;28;20218;-50
2022/09/23 09:40:02;;;;;;;27.73;17.27;;;15.60;99.90;;;;;;5051033;28;20179;-45
2022/09/23 09:42:41;;;;;;;26.02;16.23;;;15.70;99.90;;;;;;5052092;28;20179;-44
2022/09/23 09:45:25;;;;;;;27.50;16.23;;;15.70;99.90;;;;;;5053088;28;20358;-45
2022/09/23 09:48:16;;;;;;;26.48;17.13;;;15.60;99.90;;;;;;5049796;28;20187;-43
2022/09/23 09:50:50;;;;;;;27.40;17.50;;;15.70;99.90;;;;;;5032550;28;20175;-43
2022/09/23 09:53:22;;;;;;;27.40;16.88;;;15.70;99.90;;;;;;5050854;28;20251;-46
2022/09/23 09:56:26;;;;;;;29.63;17.40;;;15.70;99.90;;;;;;5052847;28;20672;-45
2022/09/23 09:58:59;;;;;;;29.85;17.05;;;15.70;99.90;;;;;;5040105;28;20275;-47
2022/09/23 10:01:30;;;;;;;31.52;17.65;;;15.70;99.90;;;;;;5018101;28;20685;-43
2022/09/23 10:03:59;;;;;;;24.35;16.75;;;15.70;99.90;;;;;;5047869;28;20179;-46
2022/09/23 10:06:28;;;;;;;25.45;16.95;;;15.70;99.90;;;;;;5053089;28;20195;-46
2022/09/23 10:09:00;;;;;;;28.77;16.83;;;15.80;99.90;;;;;;5050771;28;20199;-43
2022/09/23 10:11:27;;;;;;;24.85;15.77;;;15.80;99.90;;;;;;5051586;28;20209;-52
2022/09/23 10:14:10;;;;;;;26.13;16.10;;;15.80;99.90;;;;;;5024911;28;20186;-43
2022/09/23 10:16:36;;;;;;;27.30;15.93;;;15.80;99.90;;;;;;5051882;28;20183;-55
2022/09/23 10:19:09;;;;;;;25.90;16.25;;;15.80;99.90;;;;;;5033721;28;20634;-45
2022/09/23 10:21:36;;;;;;;26.65;16.23;;;15.80;99.90;;;;;;5051867;28;20202;-45
2022/09/23 10:24:05;;;;;;;28.30;16.58;;;15.80;99.90;;;;;;5049995;28;20198;-47
2022/09/23 10:26:37;;;;;;;24.83;16.38;;;15.80;99.90;;;;;;5051387;28;20211;-56
2022/09/23 10:29:23;;;;;;;29.30;17.40;;;15.90;99.90;;;;;;5051385;28;20179;-43
2022/09/23 10:32:09;;;;;;;32.20;18.98;;;15.90;99.90;;;;;;5051359;28;20193;-57
2022/09/23 10:34:35;;;;;;;32.83;16.65;;;15.90;99.90;;;;;;5039623;28;20217;-45
2022/09/23 10:37:14;;;;;;;32.13;16.50;;;15.90;99.90;;;;;;5031891;28;21069;-48
2022/09/23 10:48:50;;;;;;;25.10;16.15;;;16.10;99.90;;;;;;5004248;28;20191;-52
2022/09/23 10:51:33;;;;;;;29.20;16.73;;;16.20;99.90;;;;;;5005709;28;20223;-43
2022/09/23 10:54:08;;;;;;;32.53;15.75;;;16.20;99.90;;;;;;5037566;28;20199;-45
2022/09/23 10:56:48;;;;;;;26.23;16.15;;;16.30;99.90;;;;;;5052771;28;20246;-45
2022/09/23 10:59:33;;;;;;;23.23;16.27;;;16.40;99.90;;;;;;5041836;28;20265;-44
2022/09/23 11:02:40;;;;;;;23.20;16.33;;;16.40;99.90;;;;;;5051193;28;20226;-47
2022/09/23 11:05:31;;;;;;;30.00;15.90;;;16.50;99.90;;;;;;5019769;28;20764;-47
2022/09/23 11:08:03;;;;;;;22.52;15.13;;;16.50;99.90;;;;;;5041231;28;20263;-43
2022/09/23 11:10:35;;;;;;;27.35;16.27;;;16.60;99.90;;;;;;5038625;28;20176;-47
2022/09/23 11:13:28;;;;;;;31.40;17.38;;;16.70;99.90;;;;;;5044705;28;20211;-48
2022/09/23 11:16:22;;;;;;;22.00;16.00;;;16.70;99.90;;;;;;5043924;28;20212;-46
2022/09/23 11:18:54;;;;;;;32.10;16.35;;;16.80;99.90;;;;;;5054168;28;20277;-45
2022/09/23 11:21:57;;;;;;;26.27;16.30;;;16.90;99.90;;;;;;5056066;28;20180;-49
2022/09/23 11:24:34;;;;;;;25.45;16.20;;;17.00;99.90;;;;;;5042823;28;20171;-50
2022/09/23 11:27:17;;;;;;;27.10;15.75;;;17.00;99.90;;;;;;5040417;28;20321;-62
2022/09/23 11:30:08;;;;;;;24.08;16.58;;;17.10;99.90;;;;;;5054553;28;20206;-47
2022/09/23 11:32:50;;;;;;;21.50;15.75;;;17.20;99.90;;;;;;5055098;28;20194;-47
2022/09/23 11:35:20;;;;;;;30.33;15.90;;;17.20;99.90;;;;;;5056436;28;20183;-57
2022/09/23 11:37:51;;;;;;;30.27;16.52;;;17.30;99.90;;;;;;5038560;28;20206;-51
2022/09/23 11:40:27;;;;;;;26.95;16.80;;;17.40;99.90;;;;;;5036623;28;20210;-43
2022/09/23 11:43:06;;;;;;;28.05;18.42;;;17.40;99.90;;;;;;5055017;28;20182;-46
2022/09/23 11:45:41;;;;;;;26.85;15.27;;;17.50;99.90;;;;;;5054718;28;20694;-43
2022/09/23 11:48:33;;;;;;;24.42;16.52;;;17.60;99.90;;;;;;5043277;28;20190;-43
2022/09/23 11:51:03;;;;;;;20.52;16.15;;;17.60;99.90;;;;;;5031764;28;20192;-52
2022/09/23 11:53:39;;;;;;;24.48;16.00;;;17.70;99.90;;;;;;5052036;28;20175;-46
2022/09/23 11:56:22;;;;;;;30.08;16.05;;;17.80;99.90;;;;;;5055790;28;20702;-50
2022/09/23 11:59:16;;;;;;;24.55;15.68;;;17.80;99.90;;;;;;5048301;28;20168;-46
2022/09/23 12:01:48;;;;;;;26.00;15.65;;;17.80;99.90;;;;;;5048632;28;20231;-55
2022/09/23 12:04:33;;;;;;;22.58;16.15;;;17.90;99.90;;;;;;5023231;28;20191;-50
2022/09/23 12:07:21;;;;;;;27.17;15.90;;;18.00;99.90;;;;;;5021772;28;20265;-45
2022/09/23 12:10:07;;;;;;;25.23;16.17;;;18.10;99.90;;;;;;5037385;28;20203;-48
2022/09/23 12:12:47;;;;;;;23.77;15.05;;;18.20;99.90;;;;;;5052378;28;20175;-46
2022/09/23 12:15:35;;;;;;;25.73;15.45;;;18.20;99.90;;;;;;5044591;28;20179;-45
2022/09/23 12:18:27;;;;;;;23.60;15.27;;;18.30;99.90;;;;;;5050703;28;20187;-45
2022/09/23 12:21:02;;;;;;;20.00;14.10;;;18.30;99.90;;;;;;5029507;28;20741;-49
2022/09/23 12:23:37;;;;;;;22.05;14.57;;;18.40;99.90;;;;;;5042330;28;20601;-52
2022/09/23 12:26:13;;;;;;;74.38;18.77;;;18.30;99.90;;;;;;5040579;28;20217;-44
2022/09/23 12:28:44;;;;;;;20.67;13.75;;;18.30;99.90;;;;;;5052438;28;20183;-46
2022/09/23 12:31:17;;;;;;;23.75;14.45;;;18.30;99.90;;;;;;5054896;28;20202;-46
2022/09/23 12:33:53;;;;;;;25.17;15.85;;;18.30;99.90;;;;;;5032302;28;20186;-46
2022/09/23 12:36:34;;;;;;;18.88;14.20;;;18.30;99.90;;;;;;5056383;28;20232;-47
2022/09/23 12:39:06;;;;;;;24.38;13.27;;;18.30;99.90;;;;;;5051723;28;20328;-45
2022/09/23 12:41:40;;;;;;;20.25;12.93;;;18.30;99.90;;;;;;5036798;28;20179;-48
2022/09/23 12:44:27;;;;;;;22.13;12.88;;;18.20;99.90;;;;;;5050300;28;20198;-44
2022/09/23 12:47:24;;;;;;;22.45;13.13;;;18.20;99.90;;;;;;5032936;28;20214;-48
2022/09/23 12:49:52;;;;;;;22.92;13.27;;;18.20;99.90;;;;;;5043157;28;20183;-46
2022/09/23 12:52:17;;;;;;;24.20;13.38;;;18.20;99.90;;;;;;5051836;28;20203;-43
2022/09/23 12:54:48;;;;;;;17.63;11.80;;;18.10;99.90;;;;;;5053996;28;20207;-44
2022/09/23 12:57:32;;;;;;;25.70;13.07;;;18.10;99.90;;;;;;5050288;28;20194;-44
2022/09/23 13:00:12;;;;;;;20.10;12.50;;;18.10;99.90;;;;;;5012579;28;20203;-44
2022/09/23 13:02:38;;;;;;;19.83;12.80;;;18.10;99.90;;;;;;5047998;28;20191;-45
2022/09/23 13:07:54;;;;;;;23.52;12.93;;;18.10;99.90;;;;;;5050829;28;20183;-46
2022/09/23 13:10:41;;;;;;;28.98;12.82;;;18.20;99.90;;;;;;5023260;28;20202;-48
2022/09/23 13:13:20;;;;;;;20.17;12.10;;;18.20;99.90;;;;;;5046949;28;20187;-48